sensor_id;sensor_type;location;lat;lon;timestamp;pressure;altitude;pressure_sealevel;temperature;humidity
21111;BME280;10713;51.912;4.494;2023-03-04T00:01:01;102702.44;;;7.87;100.00
21111;BME280;10713;51.912;4.494;2023-03-04T00:03:27;102697.13;;;7.84;100.00
21111;BME280;10713;51.912;4.494;2023-03-04T00:05:52;102694.53;;;7.82;100.00
21111;BME280;10713;51.912;4.494;2023-03-04T00:08:17;102698.91;;;7.85;100.00
21111;BME280;10713;51.912;4.494;2023-03-04T00:10:43;102703.28;;;7.83;100.00
21111;BME280;10713;51.912;4.494;2023-03-04T00:13:08;102705.94;;;7.87;100.00
21111;BME280;10713;51.912;4.494;2023-03-04T00:15:33;102701.53;;;7.91;100.00
21111;BME280;10713;51.912;4.494;2023-03-04T00:17:59;102703.28;;;7.92;100.00
21111;BME280;10713;51.912;4.494;2023-03-04T00:20:24;102698.03;;;7.90;100.00
21111;BME280;10713;51.912;4.494;2023-03-04T00:22:49;102705.91;;;7.92;100.00
21111;BME280;10713;51.912;4.494;2023-03-04T00:25:15;102701.53;;;7.82;100.00
21111;BME280;10713;51.912;4.494;2023-03-04T00:27:40;102691.91;;;7.85;100.00
21111;BME280;10713;51.912;4.494;2023-03-04T00:30:06;102702.44;;;7.87;100.00
21111;BME280;10713;51.912;4.494;2023-03-04T00:32:32;102696.25;;;7.83;100.00
21111;BME280;10713;51.912;4.494;2023-03-04T00:34:57;102700.66;;;7.83;100.00
21111;BME280;10713;51.912;4.494;2023-03-04T00:37:23;102696.28;;;7.82;100.00
21111;BME280;10713;51.912;4.494;2023-03-04T00:39:48;102700.66;;;7.84;100.00
21111;BME280;10713;51.912;4.494;2023-03-04T00:42:13;102692.75;;;7.83;100.00
21111;BME280;10713;51.912;4.494;2023-03-04T00:44:39;102689.25;;;7.79;100.00
21111;BME280;10713;51.912;4.494;2023-03-04T00:47:04;102691.88;;;7.79;100.00
21111;BME280;10713;51.912;4.494;2023-03-04T00:49:29;102694.50;;;7.75;100.00
21111;BME280;10713;51.912;4.494;2023-03-04T00:51:55;102695.38;;;7.74;100.00
21111;BME280;10713;51.912;4.494;2023-03-04T00:54:20;102687.50;;;7.77;100.00
21111;BME280;10713;51.912;4.494;2023-03-04T00:56:45;102688.38;;;7.71;100.00
21111;BME280;10713;51.912;4.494;2023-03-04T00:59:11;102688.38;;;7.71;100.00
21111;BME280;10713;51.912;4.494;2023-03-04T01:01:36;102693.63;;;7.71;100.00
21111;BME280;10713;51.912;4.494;2023-03-04T01:04:02;102691.84;;;7.64;100.00
21111;BME280;10713;51.912;4.494;2023-03-04T01:06:27;102691.88;;;7.70;100.00
21111;BME280;10713;51.912;4.494;2023-03-04T01:08:52;102691.00;;;7.76;100.00
21111;BME280;10713;51.912;4.494;2023-03-04T01:11:18;102695.38;;;7.71;100.00
21111;BME280;10713;51.912;4.494;2023-03-04T01:13:43;102707.63;;;7.75;100.00
21111;BME280;10713;51.912;4.494;2023-03-04T01:16:09;102696.28;;;7.73;100.00
21111;BME280;10713;51.912;4.494;2023-03-04T01:18:35;102700.63;;;7.64;100.00
21111;BME280;10713;51.912;4.494;2023-03-04T01:21:00;102700.63;;;7.67;100.00
21111;BME280;10713;51.912;4.494;2023-03-04T01:23:26;102697.13;;;7.73;100.00
21111;BME280;10713;51.912;4.494;2023-03-04T01:25:51;102693.63;;;7.77;100.00
21111;BME280;10713;51.912;4.494;2023-03-04T01:28:17;102693.66;;;7.76;100.00
21111;BME280;10713;51.912;4.494;2023-03-04T01:30:42;102681.34;;;7.65;100.00
21111;BME280;10713;51.912;4.494;2023-03-04T01:33:07;102665.56;;;7.68;100.00
21111;BME280;10713;51.912;4.494;2023-03-04T01:35:33;102671.72;;;7.71;100.00
21111;BME280;10713;51.912;4.494;2023-03-04T01:37:58;102669.97;;;7.71;100.00
21111;BME280;10713;51.912;4.494;2023-03-04T01:40:24;102674.34;;;7.72;100.00
21111;BME280;10713;51.912;4.494;2023-03-04T01:42:49;102672.59;;;7.73;100.00
21111;BME280;10713;51.912;4.494;2023-03-04T01:45:17;102663.81;;;7.69;100.00
21111;BME280;10713;51.912;4.494;2023-03-04T01:47:45;102668.19;;;7.68;100.00
21111;BME280;10713;51.912;4.494;2023-03-04T01:50:27;102656.81;;;7.68;100.00
21111;BME280;10713;51.912;4.494;2023-03-04T01:52:54;102657.69;;;7.62;100.00
21111;BME280;10713;51.912;4.494;2023-03-04T01:55:22;102662.06;;;7.68;100.00
21111;BME280;10713;51.912;4.494;2023-03-04T01:57:49;102649.81;;;7.67;100.00
21111;BME280;10713;51.912;4.494;2023-03-04T02:00:31;102646.28;;;7.70;100.00
21111;BME280;10713;51.912;4.494;2023-03-04T02:03:03;102641.06;;;7.77;100.00
21111;BME280;10713;51.912;4.494;2023-03-04T02:05:31;102643.69;;;7.79;100.00
21111;BME280;10713;51.912;4.494;2023-03-04T02:07:58;102644.56;;;7.76;100.00
21111;BME280;10713;51.912;4.494;2023-03-04T02:10:26;102625.28;;;7.74;100.00
21111;BME280;10713;51.912;4.494;2023-03-04T02:12:52;102634.91;;;7.74;100.00
21111;BME280;10713;51.912;4.494;2023-03-04T02:15:18;102629.66;;;7.78;100.00
21111;BME280;10713;51.912;4.494;2023-03-04T02:17:43;102627.00;;;7.78;100.00
21111;BME280;10713;51.912;4.494;2023-03-04T02:23:26;102627.00;;;7.75;100.00
21111;BME280;10713;51.912;4.494;2023-03-04T02:26:14;102619.13;;;7.72;100.00
21111;BME280;10713;51.912;4.494;2023-03-04T02:28:41;102614.78;;;7.73;100.00
21111;BME280;10713;51.912;4.494;2023-03-04T02:31:16;102619.13;;;7.75;100.00
21111;BME280;10713;51.912;4.494;2023-03-04T02:33:44;102620.88;;;7.78;100.00
21111;BME280;10713;51.912;4.494;2023-03-04T02:36:10;102611.25;;;7.71;100.00
21111;BME280;10713;51.912;4.494;2023-03-04T02:38:35;102610.38;;;7.72;100.00
21111;BME280;10713;51.912;4.494;2023-03-04T02:41:01;102611.25;;;7.71;100.00
21111;BME280;10713;51.912;4.494;2023-03-04T02:43:27;102609.50;;;7.68;100.00
21111;BME280;10713;51.912;4.494;2023-03-04T02:45:52;102605.13;;;7.68;100.00
21111;BME280;10713;51.912;4.494;2023-03-04T02:48:20;102602.50;;;7.65;100.00
21111;BME280;10713;51.912;4.494;2023-03-04T02:50:51;102610.38;;;7.62;100.00
21111;BME280;10713;51.912;4.494;2023-03-04T02:53:17;102603.38;;;7.67;100.00
21111;BME280;10713;51.912;4.494;2023-03-04T02:55:44;102604.25;;;7.65;100.00
21111;BME280;10713;51.912;4.494;2023-03-04T02:58:11;102604.25;;;7.65;100.00
21111;BME280;10713;51.912;4.494;2023-03-04T03:00:36;102603.38;;;7.61;100.00
21111;BME280;10713;51.912;4.494;2023-03-04T03:03:02;102608.63;;;7.67;100.00
21111;BME280;10713;51.912;4.494;2023-03-04T03:05:30;102603.34;;;7.63;100.00
21111;BME280;10713;51.912;4.494;2023-03-04T03:07:56;102610.38;;;7.56;100.00
21111;BME280;10713;51.912;4.494;2023-03-04T03:10:22;102609.47;;;7.60;100.00
21111;BME280;10713;51.912;4.494;2023-03-04T03:12:47;102600.75;;;7.58;100.00
21111;BME280;10713;51.912;4.494;2023-03-04T03:15:13;102595.47;;;7.54;100.00
21111;BME280;10713;51.912;4.494;2023-03-04T03:17:39;102596.34;;;7.59;100.00
21111;BME280;10713;51.912;4.494;2023-03-04T03:20:05;102591.09;;;7.60;100.00
21111;BME280;10713;51.912;4.494;2023-03-04T03:22:30;102598.13;;;7.64;100.00
21111;BME280;10713;51.912;4.494;2023-03-04T03:24:56;102591.09;;;7.56;100.00
21111;BME280;10713;51.912;4.494;2023-03-04T03:27:21;102597.22;;;7.59;100.00
21111;BME280;10713;51.912;4.494;2023-03-04T03:29:46;102592.88;;;7.67;100.00
21111;BME280;10713;51.912;4.494;2023-03-04T03:32:12;102591.09;;;7.66;100.00
21111;BME280;10713;51.912;4.494;2023-03-04T03:34:37;102585.81;;;7.70;100.00
21111;BME280;10713;51.912;4.494;2023-03-04T03:37:03;102592.88;;;7.64;100.00
21111;BME280;10713;51.912;4.494;2023-03-04T03:39:28;102596.34;;;7.66;100.00
21111;BME280;10713;51.912;4.494;2023-03-04T03:41:53;102591.09;;;7.59;100.00
21111;BME280;10713;51.912;4.494;2023-03-04T03:44:19;102597.22;;;7.61;100.00
21111;BME280;10713;51.912;4.494;2023-03-04T03:46:44;102593.72;;;7.66;100.00
21111;BME280;10713;51.912;4.494;2023-03-04T03:49:11;102598.13;;;7.67;100.00
21111;BME280;10713;51.912;4.494;2023-03-04T03:51:36;102591.97;;;7.53;100.00
21111;BME280;10713;51.912;4.494;2023-03-04T03:54:01;102598.06;;;7.52;100.00
21111;BME280;10713;51.912;4.494;2023-03-04T03:56:27;102593.72;;;7.48;100.00
21111;BME280;10713;51.912;4.494;2023-03-04T03:58:52;102595.47;;;7.51;100.00
21111;BME280;10713;51.912;4.494;2023-03-04T04:01:17;102592.81;;;7.52;100.00
21111;BME280;10713;51.912;4.494;2023-03-04T04:03:43;102594.56;;;7.49;100.00
21111;BME280;10713;51.912;4.494;2023-03-04T04:06:08;102591.09;;;7.51;100.00
21111;BME280;10713;51.912;4.494;2023-03-04T04:08:33;102597.22;;;7.55;100.00
21111;BME280;10713;51.912;4.494;2023-03-04T04:10:59;102597.22;;;7.53;100.00
21111;BME280;10713;51.912;4.494;2023-03-04T04:13:24;102596.34;;;7.53;100.00
21111;BME280;10713;51.912;4.494;2023-03-04T04:15:50;102591.06;;;7.42;100.00
21111;BME280;10713;51.912;4.494;2023-03-04T04:18:16;102602.44;;;7.39;100.00
21111;BME280;10713;51.912;4.494;2023-03-04T04:20:41;102601.59;;;7.39;100.00
21111;BME280;10713;51.912;4.494;2023-03-04T04:23:07;102598.94;;;7.39;100.00
21111;BME280;10713;51.912;4.494;2023-03-04T04:25:32;102599.81;;;7.38;100.00
21111;BME280;10713;51.912;4.494;2023-03-04T04:27:57;102600.72;;;7.38;100.00
21111;BME280;10713;51.912;4.494;2023-03-04T04:30:23;102600.69;;;7.37;100.00
21111;BME280;10713;51.912;4.494;2023-03-04T04:32:48;102601.56;;;7.36;100.00
21111;BME280;10713;51.912;4.494;2023-03-04T04:35:14;102600.69;;;7.34;100.00
21111;BME280;10713;51.912;4.494;2023-03-04T04:37:39;102593.69;;;7.37;100.00
21111;BME280;10713;51.912;4.494;2023-03-04T04:40:05;102598.06;;;7.40;100.00
21111;BME280;10713;51.912;4.494;2023-03-04T04:42:31;102594.56;;;7.39;100.00
21111;BME280;10713;51.912;4.494;2023-03-04T04:44:57;102607.69;;;7.41;100.00
21111;BME280;10713;51.912;4.494;2023-03-04T04:47:22;102601.56;;;7.36;100.00
21111;BME280;10713;51.912;4.494;2023-03-04T04:49:47;102598.94;;;7.31;100.00
21111;BME280;10713;51.912;4.494;2023-03-04T04:52:13;102606.81;;;7.33;100.00
21111;BME280;10713;51.912;4.494;2023-03-04T04:54:38;102606.81;;;7.34;100.00
21111;BME280;10713;51.912;4.494;2023-03-04T04:57:04;102611.22;;;7.38;100.00
21111;BME280;10713;51.912;4.494;2023-03-04T04:59:29;102605.91;;;7.29;100.00
21111;BME280;10713;51.912;4.494;2023-03-04T05:01:54;102612.06;;;7.28;100.00
21111;BME280;10713;51.912;4.494;2023-03-04T05:04:20;102616.41;;;7.26;100.00
21111;BME280;10713;51.912;4.494;2023-03-04T05:06:45;102619.94;;;7.22;100.00
21111;BME280;10713;51.912;4.494;2023-03-04T05:09:11;102614.66;;;7.23;100.00
21111;BME280;10713;51.912;4.494;2023-03-04T05:11:37;102613.78;;;7.29;100.00
21111;BME280;10713;51.912;4.494;2023-03-04T05:14:02;102610.31;;;7.27;100.00
21111;BME280;10713;51.912;4.494;2023-03-04T05:16:27;102606.81;;;7.28;100.00
21111;BME280;10713;51.912;4.494;2023-03-04T05:18:53;102611.16;;;7.26;100.00
21111;BME280;10713;51.912;4.494;2023-03-04T05:21:18;102608.53;;;7.26;100.00
21111;BME280;10713;51.912;4.494;2023-03-04T05:23:44;102605.91;;;7.29;100.00
21111;BME280;10713;51.912;4.494;2023-03-04T05:26:12;102611.16;;;7.29;100.00
21111;BME280;10713;51.912;4.494;2023-03-04T05:28:39;102612.09;;;7.36;100.00
21111;BME280;10713;51.912;4.494;2023-03-04T05:31:04;102607.72;;;7.39;100.00
21111;BME280;10713;51.912;4.494;2023-03-04T05:33:29;102609.44;;;7.40;100.00
21111;BME280;10713;51.912;4.494;2023-03-04T05:35:56;102607.69;;;7.41;100.00
21111;BME280;10713;51.912;4.494;2023-03-04T05:38:21;102598.06;;;7.40;100.00
21111;BME280;10713;51.912;4.494;2023-03-04T05:40:47;102606.84;;;7.39;100.00
21111;BME280;10713;51.912;4.494;2023-03-04T05:43:14;102611.22;;;7.43;100.00
21111;BME280;10713;51.912;4.494;2023-03-04T05:45:40;102611.22;;;7.46;100.00
21111;BME280;10713;51.912;4.494;2023-03-04T05:48:06;102605.09;;;7.44;100.00
21111;BME280;10713;51.912;4.494;2023-03-04T05:50:33;102612.97;;;7.45;100.00
21111;BME280;10713;51.912;4.494;2023-03-04T05:52:59;102608.59;;;7.44;100.00
21111;BME280;10713;51.912;4.494;2023-03-04T05:55:24;102607.72;;;7.44;100.00
21111;BME280;10713;51.912;4.494;2023-03-04T05:57:51;102600.69;;;7.46;100.00
21111;BME280;10713;51.912;4.494;2023-03-04T06:00:16;102606.81;;;7.43;100.00
21111;BME280;10713;51.912;4.494;2023-03-04T06:02:43;102605.09;;;7.49;100.00
21111;BME280;10713;51.912;4.494;2023-03-04T06:05:10;102607.72;;;7.45;100.00
21111;BME280;10713;51.912;4.494;2023-03-04T06:07:35;102602.47;;;7.47;100.00
21111;BME280;10713;51.912;4.494;2023-03-04T06:10:01;102604.22;;;7.45;100.00
21111;BME280;10713;51.912;4.494;2023-03-04T06:12:26;102601.59;;;7.42;100.00
21111;BME280;10713;51.912;4.494;2023-03-04T06:14:53;102605.94;;;7.37;100.00
21111;BME280;10713;51.912;4.494;2023-03-04T06:17:18;102605.94;;;7.40;100.00
21111;BME280;10713;51.912;4.494;2023-03-04T06:19:44;102605.97;;;7.41;100.00
21111;BME280;10713;51.912;4.494;2023-03-04T06:22:10;102603.31;;;7.43;100.00
21111;BME280;10713;51.912;4.494;2023-03-04T06:24:35;102601.56;;;7.47;100.00
21111;BME280;10713;51.912;4.494;2023-03-04T06:27:01;102610.34;;;7.49;100.00
21111;BME280;10713;51.912;4.494;2023-03-04T06:29:27;102607.72;;;7.52;100.00
21111;BME280;10713;51.912;4.494;2023-03-04T06:31:52;102605.97;;;7.49;100.00
21111;BME280;10713;51.912;4.494;2023-03-04T06:34:18;102616.47;;;7.52;100.00
21111;BME280;10713;51.912;4.494;2023-03-04T06:36:44;102612.97;;;7.42;100.00
21111;BME280;10713;51.912;4.494;2023-03-04T06:39:09;102618.22;;;7.36;100.00
21111;BME280;10713;51.912;4.494;2023-03-04T06:41:36;102619.94;;;7.34;100.00
21111;BME280;10713;51.912;4.494;2023-03-04T06:44:02;102621.69;;;7.34;100.00
21111;BME280;10713;51.912;4.494;2023-03-04T06:46:27;102619.06;;;7.34;100.00
21111;BME280;10713;51.912;4.494;2023-03-04T06:48:52;102622.59;;;7.36;100.00
21111;BME280;10713;51.912;4.494;2023-03-04T06:51:18;102625.22;;;7.36;100.00
21111;BME280;10713;51.912;4.494;2023-03-04T06:53:44;102630.47;;;7.43;100.00
21111;BME280;10713;51.912;4.494;2023-03-04T06:56:11;102626.97;;;7.46;100.00
21111;BME280;10713;51.912;4.494;2023-03-04T06:58:37;102634.00;;;7.52;100.00
21111;BME280;10713;51.912;4.494;2023-03-04T07:01:29;102629.66;;;7.58;100.00
21111;BME280;10713;51.912;4.494;2023-03-04T07:03:55;102641.03;;;7.57;100.00
21111;BME280;10713;51.912;4.494;2023-03-04T07:06:24;102629.63;;;7.60;100.00
21111;BME280;10713;51.912;4.494;2023-03-04T07:08:49;102633.13;;;7.63;100.00
21111;BME280;10713;51.912;4.494;2023-03-04T07:11:16;102633.16;;;7.70;100.00
21111;BME280;10713;51.912;4.494;2023-03-04T07:13:43;102636.69;;;7.76;100.00
21111;BME280;10713;51.912;4.494;2023-03-04T07:16:11;102631.41;;;7.79;100.00
21111;BME280;10713;51.912;4.494;2023-03-04T07:18:37;102641.91;;;7.84;100.00
21111;BME280;10713;51.912;4.494;2023-03-04T07:21:03;102643.69;;;7.86;100.00
21111;BME280;10713;51.912;4.494;2023-03-04T07:23:29;102641.94;;;7.93;100.00
21111;BME280;10713;51.912;4.494;2023-03-04T07:25:54;102634.94;;;8.04;100.00
21111;BME280;10713;51.912;4.494;2023-03-04T07:28:20;102643.72;;;8.16;100.00
21111;BME280;10713;51.912;4.494;2023-03-04T07:30:45;102647.19;;;8.21;100.00
21111;BME280;10713;51.912;4.494;2023-03-04T07:33:12;102643.69;;;8.31;100.00
21111;BME280;10713;51.912;4.494;2023-03-04T07:35:37;102646.31;;;8.32;100.00
21111;BME280;10713;51.912;4.494;2023-03-04T07:38:02;102648.06;;;8.33;100.00
21111;BME280;10713;51.912;4.494;2023-03-04T07:40:28;102658.56;;;8.38;100.00
21111;BME280;10713;51.912;4.494;2023-03-04T07:42:54;102656.84;;;8.31;100.00
21111;BME280;10713;51.912;4.494;2023-03-04T07:45:21;102658.59;;;8.26;100.00
21111;BME280;10713;51.912;4.494;2023-03-04T07:47:46;102659.47;;;8.23;100.00
21111;BME280;10713;51.912;4.494;2023-03-04T07:50:13;102677.03;;;8.17;100.00
21111;BME280;10713;51.912;4.494;2023-03-04T07:52:44;102677.00;;;8.23;100.00
21111;BME280;10713;51.912;4.494;2023-03-04T07:55:12;102684.03;;;8.28;100.00
21111;BME280;10713;51.912;4.494;2023-03-04T07:57:38;102677.94;;;8.42;100.00
21111;BME280;10713;51.912;4.494;2023-03-04T08:00:05;102678.72;;;8.70;100.00
21111;BME280;10713;51.912;4.494;2023-03-04T08:02:30;102676.59;;;9.70;100.00
21111;BME280;10713;51.912;4.494;2023-03-04T08:04:56;102669.22;;;10.13;100.00
21111;BME280;10713;51.912;4.494;2023-03-04T08:07:21;102683.13;;;10.35;100.00
21111;BME280;10713;51.912;4.494;2023-03-04T08:09:47;102676.88;;;10.44;100.00
21111;BME280;10713;51.912;4.494;2023-03-04T08:12:12;102676.00;;;10.45;100.00
21111;BME280;10713;51.912;4.494;2023-03-04T08:14:37;102666.44;;;10.32;100.00
21111;BME280;10713;51.912;4.494;2023-03-04T08:17:03;102663.88;;;10.18;100.00
21111;BME280;10713;51.912;4.494;2023-03-04T08:19:28;102664.78;;;10.15;100.00
21111;BME280;10713;51.912;4.494;2023-03-04T08:21:54;102669.09;;;10.32;100.00
21111;BME280;10713;51.912;4.494;2023-03-04T08:24:19;102667.47;;;11.00;100.00
21111;BME280;10713;51.912;4.494;2023-03-04T08:26:46;102660.63;;;11.52;100.00
21111;BME280;10713;51.912;4.494;2023-03-04T08:29:18;102660.88;;;11.97;100.00
21111;BME280;10713;51.912;4.494;2023-03-04T08:31:44;102652.31;;;12.34;100.00
21111;BME280;10713;51.912;4.494;2023-03-04T08:34:11;102654.59;;;12.54;100.00
21111;BME280;10713;51.912;4.494;2023-03-04T08:36:39;102651.78;;;13.08;100.00
21111;BME280;10713;51.912;4.494;2023-03-04T08:39:05;102644.63;;;13.12;100.00
21111;BME280;10713;51.912;4.494;2023-03-04T08:41:31;102647.56;;;12.98;100.00
21111;BME280;10713;51.912;4.494;2023-03-04T08:43:56;102645.94;;;13.34;100.00
21111;BME280;10713;51.912;4.494;2023-03-04T08:46:21;102643.78;;;13.89;100.00
21111;BME280;10713;51.912;4.494;2023-03-04T08:48:47;102636.25;;;15.04;100.00
21111;BME280;10713;51.912;4.494;2023-03-04T08:51:13;102630.34;;;16.34;100.00
21111;BME280;10713;51.912;4.494;2023-03-04T08:53:40;102620.44;;;16.87;100.00
21111;BME280;10713;51.912;4.494;2023-03-04T08:56:06;102635.44;;;16.90;100.00
21111;BME280;10713;51.912;4.494;2023-03-04T08:58:32;102624.72;;;16.16;100.00
21111;BME280;10713;51.912;4.494;2023-03-04T09:00:59;102633.84;;;14.97;100.00
21111;BME280;10713;51.912;4.494;2023-03-04T09:03:24;102643.81;;;14.22;100.00
21111;BME280;10713;51.912;4.494;2023-03-04T09:05:50;102637.19;;;13.29;100.00
21111;BME280;10713;51.912;4.494;2023-03-04T09:08:16;102641.09;;;12.68;100.00
21111;BME280;10713;51.912;4.494;2023-03-04T09:10:41;102647.19;;;12.25;100.00
21111;BME280;10713;51.912;4.494;2023-03-04T09:13:07;102648.25;;;12.13;100.00
21111;BME280;10713;51.912;4.494;2023-03-04T09:15:36;102644.91;;;12.02;100.00
21111;BME280;10713;51.912;4.494;2023-03-04T09:18:02;102638.00;;;11.93;100.00
21111;BME280;10713;51.912;4.494;2023-03-04T09:20:29;102637.13;;;11.94;100.00
21111;BME280;10713;51.912;4.494;2023-03-04T09:22:54;102637.13;;;12.44;100.00
21111;BME280;10713;51.912;4.494;2023-03-04T09:25:20;102632.75;;;13.31;100.00
21111;BME280;10713;51.912;4.494;2023-03-04T09:27:45;102629.91;;;14.12;100.00
21111;BME280;10713;51.912;4.494;2023-03-04T09:30:11;102618.28;;;14.52;100.00
21111;BME280;10713;51.912;4.494;2023-03-04T09:32:36;102620.84;;;15.73;100.00
21111;BME280;10713;51.912;4.494;2023-03-04T09:35:02;102619.50;;;16.13;100.00
21111;BME280;10713;51.912;4.494;2023-03-04T09:37:28;102621.03;;;16.20;100.00
21111;BME280;10713;51.912;4.494;2023-03-04T09:39:53;102619.25;;;15.68;100.00
21111;BME280;10713;51.912;4.494;2023-03-04T09:42:33;102631.66;;;15.11;100.00
21111;BME280;10713;51.912;4.494;2023-03-04T09:45:00;102625.22;;;14.89;100.00
21111;BME280;10713;51.912;4.494;2023-03-04T09:47:27;102626.94;;;14.58;100.00
21111;BME280;10713;51.912;4.494;2023-03-04T09:49:57;102628.84;;;14.19;100.00
21111;BME280;10713;51.912;4.494;2023-03-04T09:52:30;102629.78;;;13.82;100.00
21111;BME280;10713;51.912;4.494;2023-03-04T09:55:21;102618.28;;;13.44;100.00
21111;BME280;10713;51.912;4.494;2023-03-04T10:06:00;102622.56;;;12.66;100.00
21111;BME280;10713;51.912;4.494;2023-03-04T10:08:40;102610.84;;;13.96;100.00
21111;BME280;10713;51.912;4.494;2023-03-04T10:11:40;102613.53;;;14.94;100.00
21111;BME280;10713;51.912;4.494;2023-03-04T10:16:52;102614.16;;;14.38;100.00
21111;BME280;10713;51.912;4.494;2023-03-04T10:19:44;102620.66;;;13.57;100.00
21111;BME280;10713;51.912;4.494;2023-03-04T10:22:22;102616.81;;;12.88;100.00
21111;BME280;10713;51.912;4.494;2023-03-04T10:24:53;102619.38;;;12.49;100.00
21111;BME280;10713;51.912;4.494;2023-03-04T10:27:20;102626.19;;;12.14;100.00
21111;BME280;10713;51.912;4.494;2023-03-04T10:29:47;102631.03;;;11.84;100.00
21111;BME280;10713;51.912;4.494;2023-03-04T10:32:17;102628.19;;;11.41;100.00
21111;BME280;10713;51.912;4.494;2023-03-04T10:34:43;102633.88;;;11.12;100.00
21111;BME280;10713;51.912;4.494;2023-03-04T10:37:09;102639.97;;;11.15;100.00
21111;BME280;10713;51.912;4.494;2023-03-04T10:39:41;102642.59;;;11.20;100.00
21111;BME280;10713;51.912;4.494;2023-03-04T10:44:41;102642.06;;;11.55;100.00
21111;BME280;10713;51.912;4.494;2023-03-04T10:47:09;102626.81;;;12.28;100.00
21111;BME280;10713;51.912;4.494;2023-03-04T10:49:52;102620.13;;;13.41;100.00
21111;BME280;10713;51.912;4.494;2023-03-04T10:52:30;102615.09;;;14.36;100.00
21111;BME280;10713;51.912;4.494;2023-03-04T10:55:13;102615.75;;;14.78;100.00
21111;BME280;10713;51.912;4.494;2023-03-04T10:57:41;102605.75;;;14.86;100.00
21111;BME280;10713;51.912;4.494;2023-03-04T11:02:42;102608.38;;;14.88;100.00
21111;BME280;10713;51.912;4.494;2023-03-04T11:10:19;102590.28;;;15.01;100.00
21111;BME280;10713;51.912;4.494;2023-03-04T11:12:58;102596.16;;;14.82;100.00
21111;BME280;10713;51.912;4.494;2023-03-04T11:15:26;102591.78;;;14.47;100.00
21111;BME280;10713;51.912;4.494;2023-03-04T11:18:08;102582.72;;;14.23;100.00
21111;BME280;10713;51.912;4.494;2023-03-04T11:20:38;102583.75;;;14.17;100.00
21111;BME280;10713;51.912;4.494;2023-03-04T11:23:11;102584.25;;;14.32;100.00
21111;BME280;10713;51.912;4.494;2023-03-04T11:25:49;102582.28;;;14.38;100.00
21111;BME280;10713;51.912;4.494;2023-03-04T11:28:21;102579.88;;;14.29;100.00
21111;BME280;10713;51.912;4.494;2023-03-04T11:30:59;102568.88;;;13.40;100.00
21111;BME280;10713;51.912;4.494;2023-03-04T11:38:49;102591.78;;;12.14;100.00
21111;BME280;10713;51.912;4.494;2023-03-04T11:43:57;102593.78;;;12.00;100.00
21111;BME280;10713;51.912;4.494;2023-03-04T11:52:06;102580.22;;;11.65;100.00
21111;BME280;10713;51.912;4.494;2023-03-04T11:55:32;102570.91;;;11.97;100.00
21111;BME280;10713;51.912;4.494;2023-03-04T12:06:16;102552.41;;;13.24;100.00
21111;BME280;10713;51.912;4.494;2023-03-04T12:14:47;102537.31;;;12.88;100.00
21111;BME280;10713;51.912;4.494;2023-03-04T12:28:36;102543.47;;;11.47;100.00
21111;BME280;10713;51.912;4.494;2023-03-04T12:36:54;102539.13;;;10.81;100.00
21111;BME280;10713;51.912;4.494;2023-03-04T12:39:46;102542.63;;;10.83;100.00
21111;BME280;10713;51.912;4.494;2023-03-04T12:45:23;102537.75;;;11.19;100.00
21111;BME280;10713;51.912;4.494;2023-03-04T12:50:44;102523.00;;;11.58;100.00
21111;BME280;10713;51.912;4.494;2023-03-04T12:53:57;102534.06;;;11.29;100.00
21111;BME280;10713;51.912;4.494;2023-03-04T12:56:51;102529.00;;;11.14;100.00
21111;BME280;10713;51.912;4.494;2023-03-04T12:59:19;102523.94;;;10.98;100.00
21111;BME280;10713;51.912;4.494;2023-03-04T13:01:52;102526.84;;;10.78;100.00
21111;BME280;10713;51.912;4.494;2023-03-04T13:10:01;102530.31;;;10.83;100.00
21111;BME280;10713;51.912;4.494;2023-03-04T13:12:55;102516.28;;;10.78;100.00
21111;BME280;10713;51.912;4.494;2023-03-04T13:43:52;102465.38;;;12.25;100.00
21111;BME280;10713;51.912;4.494;2023-03-04T13:51:26;102461.41;;;12.45;100.00
21111;BME280;10713;51.912;4.494;2023-03-04T13:54:31;102457.50;;;12.22;100.00
21111;BME280;10713;51.912;4.494;2023-03-04T13:59:31;102465.31;;;11.82;100.00
21111;BME280;10713;51.912;4.494;2023-03-04T14:05:01;102460.44;;;11.56;100.00
21111;BME280;10713;51.912;4.494;2023-03-04T14:07:33;102456.63;;;11.22;100.00
21111;BME280;10713;51.912;4.494;2023-03-04T14:10:03;102458.69;;;11.03;100.00
21111;BME280;10713;51.912;4.494;2023-03-04T14:12:53;102461.38;;;11.00;100.00
21111;BME280;10713;51.912;4.494;2023-03-04T14:15:23;102463.25;;;10.92;100.00
21111;BME280;10713;51.912;4.494;2023-03-04T14:17:51;102464.25;;;10.85;100.00
21111;BME280;10713;51.912;4.494;2023-03-04T14:20:30;102454.84;;;10.64;100.00
21111;BME280;10713;51.912;4.494;2023-03-04T14:22:59;102470.50;;;10.79;100.00
21111;BME280;10713;51.912;4.494;2023-03-04T14:25:29;102462.63;;;10.76;100.00
21111;BME280;10713;51.912;4.494;2023-03-04T14:30:29;102460.56;;;10.95;100.00
21111;BME280;10713;51.912;4.494;2023-03-04T14:32:56;102451.97;;;10.81;100.00
21111;BME280;10713;51.912;4.494;2023-03-04T14:35:24;102449.59;;;10.63;100.00
21111;BME280;10713;51.912;4.494;2023-03-04T14:40:21;102450.19;;;10.85;100.00
21111;BME280;10713;51.912;4.494;2023-03-04T14:42:52;102445.72;;;10.88;100.00
21111;BME280;10713;51.912;4.494;2023-03-04T14:45:20;102452.63;;;10.95;100.00
21111;BME280;10713;51.912;4.494;2023-03-04T14:47:47;102442.88;;;11.00;100.00
21111;BME280;10713;51.912;4.494;2023-03-04T14:50:16;102427.13;;;10.93;100.00
21111;BME280;10713;51.912;4.494;2023-03-04T14:52:44;102429.72;;;10.96;100.00
21111;BME280;10713;51.912;4.494;2023-03-04T14:57:40;102433.41;;;10.86;100.00